createdAt,value
2019-02-21T00:00:48.370Z,18.07
2019-02-21T00:04:52.639Z,18.87
2019-02-21T00:08:56.843Z,18.07
2019-02-21T00:13:01.079Z,18.10
2019-02-21T00:17:05.263Z,18.20
2019-02-21T00:21:09.463Z,17.90
2019-02-21T00:25:13.687Z,17.77
2019-02-21T00:29:17.890Z,18.20
2019-02-21T00:33:22.133Z,19.23
2019-02-21T00:37:26.318Z,18.60
2019-02-21T00:41:30.603Z,18.80
2019-02-21T00:45:34.832Z,19.13
2019-02-21T00:49:39.040Z,18.63
2019-02-21T00:53:43.320Z,19.23
2019-02-21T00:57:47.541Z,19.40
2019-02-21T01:01:51.731Z,20.03
2019-02-21T01:05:55.935Z,20.80
2019-02-21T01:10:00.327Z,20.50
2019-02-21T01:14:04.766Z,19.50
2019-02-21T01:18:08.994Z,20.63
2019-02-21T01:22:13.297Z,19.57
2019-02-21T01:26:17.534Z,20.20
2019-02-21T01:30:21.658Z,19.47
2019-02-21T01:34:25.855Z,20.40
2019-02-21T01:38:30.574Z,19.20
2019-02-21T01:42:34.750Z,21.17
2019-02-21T01:46:38.958Z,19.33
2019-02-21T01:50:43.154Z,19.53
2019-02-21T01:54:47.758Z,18.80
2019-02-21T01:58:51.890Z,19.90
2019-02-21T02:02:56.179Z,19.83
2019-02-21T02:07:00.378Z,19.53
2019-02-21T02:11:04.591Z,18.87
2019-02-21T02:15:09.038Z,18.73
2019-02-21T02:19:13.251Z,17.83
2019-02-21T02:23:17.525Z,17.77
2019-02-21T02:27:21.726Z,18.47
2019-02-21T02:31:25.850Z,19.23
2019-02-21T02:35:30.073Z,17.97
2019-02-21T02:39:34.271Z,18.37
2019-02-21T02:43:38.442Z,17.27
2019-02-21T02:47:42.577Z,17.07
2019-02-21T02:51:46.882Z,17.10
2019-02-21T02:55:51.013Z,17.27
2019-02-21T02:59:55.163Z,17.03
2019-02-21T03:03:59.343Z,18.87
2019-02-21T03:08:03.536Z,17.33
2019-02-21T03:12:07.735Z,18.00
2019-02-21T03:16:11.926Z,16.50
2019-02-21T03:20:16.159Z,16.80
2019-02-21T03:24:20.371Z,17.30
2019-02-21T03:28:24.563Z,15.97
2019-02-21T03:32:28.760Z,16.30
2019-02-21T03:36:32.960Z,17.80
2019-02-21T03:40:37.175Z,17.37
2019-02-21T03:44:41.354Z,17.87
2019-02-21T03:48:45.558Z,17.43
2019-02-21T03:52:49.768Z,17.77
2019-02-21T03:56:53.972Z,18.83
2019-02-21T04:00:58.201Z,18.57
2019-02-21T04:05:02.370Z,17.67
2019-02-21T04:09:08.887Z,18.17
2019-02-21T04:13:15.169Z,17.77
2019-02-21T04:17:19.039Z,17.50
2019-02-21T04:21:23.235Z,19.00
2019-02-21T04:25:27.441Z,19.60
2019-02-21T04:29:33.648Z,19.37
2019-02-21T04:33:37.954Z,18.53
2019-02-21T04:37:42.139Z,20.33
2019-02-21T04:41:46.355Z,19.70
2019-02-21T04:45:50.515Z,18.87
2019-02-21T04:49:54.723Z,19.40
2019-02-21T04:54:02.094Z,19.20
2019-02-21T04:58:06.301Z,20.30
2019-02-21T05:02:10.496Z,20.17
2019-02-21T05:06:14.674Z,20.10
2019-02-21T05:10:18.883Z,20.37
2019-02-21T05:14:23.087Z,19.43
2019-02-21T05:18:27.278Z,19.10
2019-02-21T05:22:31.482Z,20.03
2019-02-21T05:26:40.605Z,20.37
2019-02-21T05:30:45.513Z,19.77
2019-02-21T05:34:55.210Z,20.47
2019-02-21T05:39:36.917Z,18.87
2019-02-21T05:44:12.246Z,20.50
2019-02-21T05:48:34.167Z,20.83
2019-02-21T05:53:00.685Z,20.67
2019-02-21T05:57:23.996Z,19.83
2019-02-21T06:01:53.570Z,21.37
2019-02-21T06:06:22.930Z,20.53
2019-02-21T06:10:45.636Z,21.90
2019-02-21T06:14:56.747Z,20.80
2019-02-21T06:19:17.966Z,20.83
2019-02-21T06:23:40.287Z,20.43
2019-02-21T06:27:50.255Z,22.47
2019-02-21T06:31:54.433Z,22.03
2019-02-21T06:35:58.662Z,21.47
2019-02-21T06:40:02.951Z,22.33
2019-02-21T06:44:07.189Z,22.10
2019-02-21T06:48:11.358Z,24.07
2019-02-21T06:52:15.791Z,23.33
2019-02-21T06:56:20.027Z,21.33
2019-02-21T07:00:24.225Z,23.63
2019-02-21T07:04:28.430Z,22.27
2019-02-21T07:08:32.622Z,22.13
2019-02-21T07:12:36.735Z,23.17
2019-02-21T07:16:40.946Z,21.77
2019-02-21T07:20:45.159Z,23.20
2019-02-21T07:24:54.080Z,23.53
2019-02-21T07:28:58.489Z,22.10
2019-02-21T07:33:02.748Z,22.67
2019-02-21T07:37:17.749Z,23.67
2019-02-21T07:41:12.939Z,24.10
2019-02-21T07:45:17.088Z,23.53
2019-02-21T07:49:21.277Z,24.33
2019-02-21T07:53:25.443Z,25.60
2019-02-21T07:57:29.668Z,25.07
2019-02-21T08:01:33.865Z,26.50
2019-02-21T08:05:38.071Z,25.80
2019-02-21T08:09:42.256Z,24.37
2019-02-21T08:13:46.435Z,26.13
2019-02-21T08:17:50.630Z,25.00
2019-02-21T08:21:54.834Z,25.43
2019-02-21T08:25:59.057Z,25.37
2019-02-21T08:30:03.491Z,26.57
2019-02-21T08:34:15.039Z,25.80
2019-02-21T08:38:19.240Z,26.60
2019-02-21T08:42:23.468Z,26.17
2019-02-21T08:46:27.680Z,26.23
2019-02-21T08:50:31.871Z,23.97
2019-02-21T08:54:36.049Z,25.77
2019-02-21T08:58:40.271Z,23.70
2019-02-21T09:02:44.615Z,24.83
2019-02-21T09:06:48.911Z,24.17
2019-02-21T09:10:53.216Z,24.30
2019-02-21T09:14:57.402Z,23.60
2019-02-21T09:19:01.601Z,24.07
2019-02-21T09:23:05.811Z,24.77
2019-02-21T09:27:10.022Z,23.90
2019-02-21T09:31:14.223Z,23.63
2019-02-21T09:35:18.397Z,22.47
2019-02-21T09:39:22.602Z,24.00
2019-02-21T09:43:26.807Z,22.47
2019-02-21T09:47:31.242Z,22.80
2019-02-21T09:51:36.668Z,22.00
2019-02-21T09:55:41.086Z,22.47
2019-02-21T09:59:45.277Z,23.93
2019-02-21T10:03:49.504Z,22.67
2019-02-21T10:07:53.698Z,22.87
2019-02-21T10:11:59.120Z,23.10
2019-02-21T10:16:04.831Z,23.27
2019-02-21T10:20:11.539Z,22.30
2019-02-21T10:24:15.774Z,22.40
2019-02-21T10:28:19.970Z,22.33
2019-02-21T10:32:24.183Z,23.13
2019-02-21T10:36:28.364Z,22.10
2019-02-21T10:40:33.390Z,22.33
2019-02-21T10:44:37.687Z,21.93
2019-02-21T10:48:41.905Z,23.33
2019-02-21T10:52:46.143Z,24.43
2019-02-21T10:56:58.008Z,23.47
2019-02-21T11:01:02.207Z,23.33
2019-02-21T11:05:07.118Z,23.20
2019-02-21T11:09:19.956Z,24.57
2019-02-21T11:13:24.163Z,23.20
2019-02-21T11:17:28.370Z,23.57
2019-02-21T11:21:32.563Z,22.43
2019-02-21T11:25:36.822Z,23.47
2019-02-21T11:29:41.062Z,24.20
2019-02-21T11:33:45.265Z,24.27
2019-02-21T11:37:49.645Z,23.60
2019-02-21T11:41:54.061Z,22.37
2019-02-21T11:45:58.264Z,22.60
2019-02-21T11:50:02.462Z,22.77
2019-02-21T11:54:06.666Z,22.73
2019-02-21T11:58:10.783Z,21.67
2019-02-21T12:02:15.066Z,23.37
2019-02-21T12:06:19.280Z,21.57
2019-02-21T12:10:23.555Z,21.97
2019-02-21T12:14:27.683Z,23.30
2019-02-21T12:18:31.883Z,21.83
2019-02-21T12:22:36.185Z,22.80
2019-02-21T12:26:40.402Z,22.87
2019-02-21T12:31:03.753Z,21.60
2019-02-21T12:35:08.222Z,20.40
2019-02-21T12:39:12.565Z,20.40
2019-02-21T12:43:16.773Z,19.97
2019-02-21T12:47:20.974Z,19.77
2019-02-21T12:51:26.268Z,19.13
2019-02-21T12:55:31.763Z,17.60
2019-02-21T12:59:36.042Z,16.60
2019-02-21T13:03:40.190Z,16.00
2019-02-21T13:07:44.397Z,16.37
2019-02-21T13:11:48.594Z,16.03
2019-02-21T13:15:52.796Z,15.77
2019-02-21T13:19:57.000Z,17.37
2019-02-21T13:24:01.242Z,16.37
2019-02-21T13:28:05.449Z,16.90
2019-02-21T13:32:09.705Z,16.10
2019-02-21T13:36:13.855Z,14.67
2019-02-21T13:40:21.008Z,16.53
2019-02-21T13:44:23.907Z,15.90
2019-02-21T13:48:28.085Z,14.53
2019-02-21T13:52:32.212Z,15.63
2019-02-21T13:56:36.403Z,15.60
2019-02-21T14:00:40.674Z,15.90
2019-02-21T14:04:45.104Z,14.83
2019-02-21T14:08:49.269Z,14.77
2019-02-21T14:12:53.469Z,15.07
2019-02-21T14:16:57.682Z,14.50
2019-02-21T14:21:01.928Z,14.20
2019-02-21T14:25:06.665Z,15.20
2019-02-21T14:29:10.846Z,15.40
2019-02-21T14:33:17.386Z,15.80
2019-02-21T14:37:20.939Z,15.80
2019-02-21T14:41:25.146Z,14.97
2019-02-21T14:45:29.358Z,14.97
2019-02-21T14:49:33.554Z,14.00
2019-02-21T14:53:37.754Z,14.60
2019-02-21T14:57:41.899Z,16.53
2019-02-21T15:01:46.233Z,17.30
2019-02-21T15:05:50.453Z,17.73
2019-02-21T15:09:54.626Z,19.00
2019-02-21T15:13:58.827Z,20.07
2019-02-21T15:18:07.476Z,20.47
2019-02-21T15:22:08.890Z,20.93
2019-02-21T15:26:13.039Z,20.73
2019-02-21T15:30:18.445Z,20.90
2019-02-21T15:34:22.814Z,22.40
2019-02-21T15:38:27.022Z,21.43
2019-02-21T15:42:31.226Z,22.87
2019-02-21T15:46:35.434Z,23.90
2019-02-21T15:50:39.607Z,23.70
2019-02-21T15:54:43.846Z,24.63
2019-02-21T15:58:47.995Z,24.57
2019-02-21T16:02:52.212Z,24.63
2019-02-21T16:06:56.422Z,24.47
2019-02-21T16:11:00.590Z,24.77
2019-02-21T16:15:05.263Z,24.20
2019-02-21T16:19:09.459Z,25.37
2019-02-21T16:23:13.658Z,24.07
2019-02-21T16:27:17.800Z,25.17
2019-02-21T16:31:22.041Z,23.47
2019-02-21T16:35:27.353Z,24.53
2019-02-21T16:39:31.759Z,24.70
2019-02-21T16:43:36.029Z,25.77
2019-02-21T16:47:40.372Z,26.97
2019-02-21T16:51:44.553Z,26.00
2019-02-21T16:55:48.746Z,25.37
2019-02-21T16:59:52.861Z,25.50
2019-02-21T17:03:57.086Z,30.00
2019-02-21T17:08:01.450Z,26.53
2019-02-21T17:12:05.641Z,25.13
2019-02-21T17:16:09.853Z,25.37
2019-02-21T17:20:15.082Z,25.43
2019-02-21T17:24:19.338Z,24.73
2019-02-21T17:28:23.534Z,25.00
2019-02-21T17:32:27.642Z,24.53
2019-02-21T17:36:32.774Z,25.30
2019-02-21T17:40:37.243Z,24.23
2019-02-21T17:44:41.561Z,26.13
2019-02-21T17:48:46.778Z,27.13
2019-02-21T17:52:51.135Z,26.43
2019-02-21T17:56:55.338Z,27.70
2019-02-21T18:00:59.571Z,29.20
2019-02-21T18:05:03.754Z,29.03
2019-02-21T18:09:08.378Z,29.10
2019-02-21T18:13:12.616Z,28.83
2019-02-21T18:17:17.112Z,31.63
2019-02-21T18:21:21.315Z,31.37
2019-02-21T18:25:37.827Z,31.30
2019-02-21T18:29:43.799Z,33.93
2019-02-21T18:33:48.107Z,33.73
2019-02-21T18:37:52.299Z,33.40
2019-02-21T18:41:56.510Z,33.80
2019-02-21T18:46:00.740Z,35.30
2019-02-21T18:50:09.886Z,35.03
2019-02-21T18:54:14.232Z,36.30
2019-02-21T18:58:18.475Z,35.30
2019-02-21T19:02:22.826Z,36.23
2019-02-21T19:06:27.007Z,35.23
2019-02-21T19:10:31.294Z,36.83
2019-02-21T19:14:35.618Z,37.50
2019-02-21T19:18:39.896Z,37.23
2019-02-21T19:22:47.770Z,37.00
2019-02-21T19:26:52.086Z,39.73
2019-02-21T19:31:04.466Z,38.93
2019-02-21T19:35:28.490Z,38.30
2019-02-21T19:39:33.368Z,38.07
2019-02-21T19:43:37.797Z,39.77
2019-02-21T19:47:42.203Z,38.90
2019-02-21T19:51:46.758Z,40.50
2019-02-21T19:55:51.201Z,41.20
2019-02-21T19:59:55.677Z,41.03
2019-02-21T20:03:59.953Z,41.70
2019-02-21T20:08:08.520Z,42.77
2019-02-21T20:12:10.656Z,42.50
2019-02-21T20:16:15.312Z,40.77
2019-02-21T20:20:19.520Z,43.13
2019-02-21T20:24:23.759Z,41.33
2019-02-21T20:28:27.963Z,43.50
2019-02-21T20:32:32.192Z,44.17
2019-02-21T20:36:36.798Z,40.90
2019-02-21T20:40:41.030Z,39.27
2019-02-21T20:44:45.239Z,40.10
2019-02-21T20:48:49.857Z,38.73
2019-02-21T20:52:54.245Z,38.47
2019-02-21T20:56:58.454Z,38.13
2019-02-21T21:01:03.133Z,38.27
2019-02-21T21:05:07.745Z,48.05
2019-02-21T21:09:11.959Z,40.33
2019-02-21T21:13:16.163Z,38.63
2019-02-21T21:17:20.375Z,36.50
2019-02-21T21:21:24.573Z,38.30
2019-02-21T21:25:28.838Z,36.67
2019-02-21T21:29:33.074Z,38.87
2019-02-21T21:33:38.268Z,40.27
2019-02-21T21:37:42.559Z,39.30
2019-02-21T21:41:46.900Z,39.33
2019-02-21T21:45:51.089Z,40.30
2019-02-21T21:49:55.309Z,38.70
2019-02-21T21:53:59.657Z,38.60
2019-02-21T21:58:03.795Z,37.60
2019-02-21T22:02:08.144Z,37.93
2019-02-21T22:06:13.772Z,37.73
2019-02-21T22:10:18.576Z,35.50
2019-02-21T22:14:22.875Z,34.27
2019-02-21T22:18:27.090Z,33.47
2019-02-21T22:22:32.590Z,32.67
2019-02-21T22:26:36.866Z,32.13
2019-02-21T22:30:41.198Z,31.50
2019-02-21T22:34:45.532Z,31.90
2019-02-21T22:38:49.826Z,31.90
2019-02-21T22:42:55.670Z,30.20
2019-02-21T22:47:00.041Z,33.17
2019-02-21T22:51:04.281Z,29.57
2019-02-21T22:55:10.179Z,30.57
2019-02-21T22:59:14.775Z,30.30
2019-02-21T23:03:19.155Z,31.23
2019-02-21T23:07:59.670Z,30.63
2019-02-21T23:12:04.237Z,29.67
2019-02-21T23:16:08.721Z,29.77
2019-02-21T23:20:13.309Z,28.87
2019-02-21T23:24:17.698Z,27.73
2019-02-21T23:28:22.170Z,27.33
2019-02-21T23:32:26.394Z,26.53
2019-02-21T23:36:31.024Z,27.37
2019-02-21T23:40:37.030Z,28.27
2019-02-21T23:44:41.499Z,26.97
2019-02-21T23:48:46.118Z,26.00
2019-02-21T23:52:51.979Z,26.87
2019-02-21T23:56:56.422Z,27.20
